createdAt,value
2022-07-25T00:00:01.472Z,66.83
2022-07-25T00:00:37.099Z,67.63
2022-07-25T00:01:12.280Z,67.83
2022-07-25T00:01:47.422Z,66.73
2022-07-25T00:02:22.562Z,66.73
2022-07-25T00:02:57.609Z,66.53
2022-07-25T00:03:32.804Z,66.93
2022-07-25T00:04:08.354Z,66.06
2022-07-25T00:04:43.325Z,66.93
2022-07-25T00:05:18.303Z,66.33
2022-07-25T00:05:53.542Z,66.56
2022-07-25T00:06:28.869Z,66.96
2022-07-25T00:07:04.151Z,66.86
2022-07-25T00:07:39.650Z,66.43
2022-07-25T00:08:14.749Z,67.03
2022-07-25T00:08:50.161Z,66.33
2022-07-25T00:09:25.262Z,66.47
2022-07-25T00:10:00.473Z,65.97
2022-07-25T00:10:35.686Z,66.66
2022-07-25T00:11:11.232Z,66.36
2022-07-25T00:11:46.551Z,66.77
2022-07-25T00:12:21.630Z,66.77
2022-07-25T00:12:57.026Z,66.47
2022-07-25T00:13:32.120Z,66.56
2022-07-25T00:14:07.680Z,66.53
2022-07-25T00:14:42.939Z,66.36
2022-07-25T00:15:18.225Z,67.16
2022-07-25T00:15:54.006Z,66.77
2022-07-25T00:16:29.218Z,67.46
2022-07-25T00:17:04.532Z,67.07
2022-07-25T00:17:39.430Z,66.96
2022-07-25T00:18:14.940Z,66.56
2022-07-25T00:18:50.328Z,67.26
2022-07-25T00:19:25.850Z,67.46
2022-07-25T00:20:00.852Z,66.27
2022-07-25T00:20:36.241Z,67.16
2022-07-25T00:21:11.550Z,66.80
2022-07-25T00:21:46.575Z,67.36
2022-07-25T00:22:21.667Z,67.26
2022-07-25T00:22:57.054Z,67.76
2022-07-25T00:23:32.357Z,67.57
2022-07-25T00:24:08.355Z,67.69
2022-07-25T00:24:43.285Z,67.57
2022-07-25T00:25:18.569Z,67.40
2022-07-25T00:25:53.775Z,67.90
2022-07-25T00:26:29.207Z,67.60
2022-07-25T00:27:04.686Z,67.80
2022-07-25T00:27:39.885Z,67.99
2022-07-25T00:28:15.143Z,67.90
2022-07-25T00:28:50.128Z,68.79
2022-07-25T00:29:25.338Z,67.99
2022-07-25T00:30:00.527Z,68.10
2022-07-25T00:30:35.729Z,67.99
2022-07-25T00:31:11.329Z,68.49
2022-07-25T00:31:46.395Z,68.49
2022-07-25T00:32:21.649Z,68.43
2022-07-25T00:32:57.022Z,69.23
2022-07-25T00:33:32.331Z,68.63
2022-07-25T00:34:08.054Z,68.63
2022-07-25T00:34:43.134Z,68.33
2022-07-25T00:35:18.414Z,68.33
2022-07-25T00:35:53.790Z,68.33
2022-07-25T00:36:28.889Z,68.33
2022-07-25T00:37:04.273Z,68.73
2022-07-25T00:37:39.609Z,68.43
2022-07-25T00:38:14.893Z,68.43
2022-07-25T00:38:50.195Z,68.63
2022-07-25T00:39:25.299Z,69.53
2022-07-25T00:40:00.292Z,69.32
2022-07-25T00:40:35.693Z,69.13
2022-07-25T00:41:10.975Z,69.02
2022-07-25T00:41:46.047Z,68.82
2022-07-25T00:42:21.279Z,69.13
2022-07-25T00:42:56.362Z,69.62
2022-07-25T00:43:31.561Z,69.62
2022-07-25T00:44:07.009Z,69.56
2022-07-25T00:44:41.838Z,69.82
2022-07-25T00:45:16.957Z,69.82
2022-07-25T00:45:52.167Z,69.43
2022-07-25T00:46:27.078Z,69.73
2022-07-25T00:47:02.387Z,69.93
2022-07-25T00:47:37.627Z,70.06
2022-07-25T00:48:12.713Z,70.12
2022-07-25T00:48:48.311Z,69.86
2022-07-25T00:49:23.526Z,70.03
2022-07-25T00:49:58.952Z,70.36
2022-07-25T00:50:34.260Z,70.16
2022-07-25T00:51:09.674Z,69.93
2022-07-25T00:51:45.169Z,70.12
2022-07-25T00:52:20.380Z,69.66
2022-07-25T00:52:55.783Z,69.96
2022-07-25T00:53:31.226Z,69.62
2022-07-25T00:54:06.829Z,70.26
2022-07-25T00:54:41.616Z,69.96
2022-07-25T00:55:16.915Z,69.86
2022-07-25T00:55:52.243Z,69.36
2022-07-25T00:56:27.645Z,70.03
2022-07-25T00:57:02.561Z,69.76
2022-07-25T00:57:38.239Z,69.56
2022-07-25T00:58:13.471Z,69.96
2022-07-25T00:58:48.766Z,69.96
2022-07-25T00:59:23.966Z,70.56
2022-07-25T00:59:59.068Z,70.06
2022-07-25T01:00:34.557Z,69.96
2022-07-25T01:01:09.926Z,68.86
2022-07-25T01:01:45.159Z,69.86
2022-07-25T01:02:20.233Z,69.96
2022-07-25T01:02:55.472Z,69.66
2022-07-25T01:03:30.901Z,69.56
2022-07-25T01:04:06.496Z,69.56
2022-07-25T01:04:41.366Z,69.96
2022-07-25T01:05:16.575Z,69.66
2022-07-25T01:05:53.712Z,68.56
2022-07-25T01:06:27.111Z,68.56
2022-07-25T01:07:02.535Z,69.36
2022-07-25T01:07:38.054Z,69.66
2022-07-25T01:08:13.153Z,70.06
2022-07-25T01:08:48.289Z,69.96
2022-07-25T01:09:23.817Z,68.96
2022-07-25T01:09:59.140Z,69.36
2022-07-25T01:10:34.733Z,69.86
2022-07-25T01:11:10.053Z,70.56
2022-07-25T01:11:45.225Z,70.86
2022-07-25T01:12:20.320Z,70.26
2022-07-25T01:12:55.510Z,69.96
2022-07-25T01:13:30.923Z,70.69
2022-07-25T01:14:06.504Z,71.36
2022-07-25T01:14:41.361Z,70.36
2022-07-25T01:15:16.361Z,70.09
2022-07-25T01:15:51.775Z,70.19
2022-07-25T01:16:27.328Z,71.89
2022-07-25T01:17:02.374Z,69.89
2022-07-25T01:17:37.681Z,70.06
2022-07-25T01:18:12.898Z,70.49
2022-07-25T01:18:48.385Z,70.19
2022-07-25T01:19:23.887Z,70.19
2022-07-25T01:19:59.324Z,69.99
2022-07-25T01:20:34.539Z,70.29
2022-07-25T01:21:09.832Z,70.69
2022-07-25T01:21:44.938Z,70.29
2022-07-25T01:22:20.241Z,70.19
2022-07-25T01:22:55.525Z,70.19
2022-07-25T01:23:30.926Z,70.09
2022-07-25T01:24:06.329Z,70.09
2022-07-25T01:24:41.430Z,70.99
2022-07-25T01:25:16.663Z,69.99
2022-07-25T01:25:52.152Z,70.79
2022-07-25T01:26:27.266Z,71.09
2022-07-25T01:27:02.771Z,70.39
2022-07-25T01:27:38.072Z,70.79
2022-07-25T01:28:13.581Z,70.39
2022-07-25T01:28:48.923Z,70.69
2022-07-25T01:29:24.159Z,70.99
2022-07-25T01:29:59.538Z,70.29
2022-07-25T01:30:34.766Z,70.79
2022-07-25T01:31:09.818Z,70.89
2022-07-25T01:31:45.208Z,70.99
2022-07-25T01:32:20.370Z,71.09
2022-07-25T01:32:55.511Z,69.89
2022-07-25T01:33:30.956Z,70.69
2022-07-25T01:34:06.437Z,70.59
2022-07-25T01:34:41.376Z,70.89
2022-07-25T01:35:16.763Z,70.39
2022-07-25T01:35:52.039Z,70.83
2022-07-25T01:36:27.253Z,70.79
2022-07-25T01:37:02.549Z,70.59
2022-07-25T01:37:38.082Z,70.12
2022-07-25T01:38:13.296Z,70.03
2022-07-25T01:38:48.796Z,70.29
2022-07-25T01:39:24.213Z,70.09
2022-07-25T01:39:59.523Z,70.83
2022-07-25T01:40:34.832Z,70.62
2022-07-25T01:41:10.235Z,70.99
2022-07-25T01:41:45.435Z,71.42
2022-07-25T01:42:20.528Z,72.13
2022-07-25T01:42:55.943Z,72.23
2022-07-25T01:43:31.173Z,71.73
2022-07-25T01:44:06.750Z,71.03
2022-07-25T01:44:41.679Z,71.42
2022-07-25T01:45:17.178Z,71.12
2022-07-25T01:45:52.490Z,71.42
2022-07-25T01:46:27.554Z,70.62
2022-07-25T01:47:02.702Z,71.42
2022-07-25T01:47:37.928Z,71.62
2022-07-25T01:48:13.317Z,71.33
2022-07-25T01:48:48.891Z,71.12
2022-07-25T01:49:24.444Z,71.92
2022-07-25T01:49:59.964Z,71.62
2022-07-25T01:50:35.476Z,71.53
2022-07-25T01:51:10.586Z,71.73
2022-07-25T01:51:46.102Z,71.62
2022-07-25T01:52:21.296Z,70.62
2022-07-25T01:52:56.700Z,72.03
2022-07-25T01:53:32.103Z,71.62
2022-07-25T01:54:07.801Z,71.33
2022-07-25T01:54:43.504Z,71.03
2022-07-25T01:55:17.946Z,72.33
2022-07-25T01:55:52.966Z,71.73
2022-07-25T01:56:28.631Z,71.42
2022-07-25T01:57:03.897Z,71.36
2022-07-25T01:57:39.402Z,71.46
2022-07-25T01:58:14.692Z,70.83
2022-07-25T01:58:50.104Z,70.73
2022-07-25T01:59:25.825Z,71.83
2022-07-25T02:00:01.027Z,71.23
2022-07-25T02:00:35.943Z,71.62
2022-07-25T02:01:11.316Z,71.76
2022-07-25T02:01:46.623Z,72.03
2022-07-25T02:02:21.968Z,72.06
2022-07-25T02:02:57.395Z,72.36
2022-07-25T02:03:32.416Z,71.56
2022-07-25T02:04:07.984Z,71.92
2022-07-25T02:04:42.959Z,71.36
2022-07-25T02:05:18.230Z,71.56
2022-07-25T02:05:53.658Z,72.26
2022-07-25T02:06:28.860Z,72.76
2022-07-25T02:07:04.264Z,70.83
2022-07-25T02:07:39.159Z,71.62
2022-07-25T02:08:14.466Z,71.76
2022-07-25T02:08:49.971Z,70.86
2022-07-25T02:09:25.041Z,71.42
2022-07-25T02:10:00.247Z,72.46
2022-07-25T02:10:35.659Z,70.86
2022-07-25T02:11:10.577Z,71.66
2022-07-25T02:11:45.981Z,73.53
2022-07-25T02:12:21.261Z,70.96
2022-07-25T02:12:56.380Z,71.62
2022-07-25T02:13:31.903Z,70.86
2022-07-25T02:14:07.513Z,71.73
2022-07-25T02:14:42.717Z,71.96
2022-07-25T02:15:18.225Z,71.66
2022-07-25T02:15:53.421Z,71.76
2022-07-25T02:16:29.535Z,71.46
2022-07-25T02:17:04.509Z,71.86
2022-07-25T02:17:39.573Z,71.26
2022-07-25T02:18:14.908Z,72.56
2022-07-25T02:18:50.305Z,71.42
2022-07-25T02:19:25.526Z,71.76
2022-07-25T02:20:00.829Z,71.96
2022-07-25T02:20:36.222Z,71.56
2022-07-25T02:21:13.893Z,71.56
2022-07-25T02:21:46.727Z,71.66
2022-07-25T02:22:21.750Z,73.16
2022-07-25T02:22:56.959Z,73.36
2022-07-25T02:23:32.200Z,74.06
2022-07-25T02:24:07.773Z,74.06
2022-07-25T02:24:42.593Z,72.76
2022-07-25T02:25:17.695Z,72.16
2022-07-25T02:25:53.308Z,71.46
2022-07-25T02:26:28.311Z,71.56
2022-07-25T02:27:03.843Z,71.66
2022-07-25T02:27:39.161Z,72.16
2022-07-25T02:28:14.507Z,71.46
2022-07-25T02:28:49.709Z,72.19
2022-07-25T02:29:24.923Z,71.96
2022-07-25T02:30:00.394Z,72.46
2022-07-25T02:30:35.971Z,71.69
2022-07-25T02:31:11.320Z,71.50
2022-07-25T02:31:46.462Z,72.36
2022-07-25T02:32:21.616Z,71.66
2022-07-25T02:32:57.018Z,71.66
2022-07-25T02:33:32.056Z,71.59
2022-07-25T02:34:08.003Z,71.76
2022-07-25T02:34:42.765Z,71.39
2022-07-25T02:35:17.860Z,72.66
2022-07-25T02:35:52.847Z,72.06
2022-07-25T02:36:28.259Z,72.19
2022-07-25T02:37:03.865Z,73.00
2022-07-25T02:37:39.381Z,72.39
2022-07-25T02:38:14.386Z,72.00
2022-07-25T02:38:50.007Z,72.39
2022-07-25T02:39:25.206Z,72.19
2022-07-25T02:40:00.402Z,72.30
2022-07-25T02:40:35.918Z,72.30
2022-07-25T02:41:11.218Z,71.80
2022-07-25T02:41:46.418Z,73.30
2022-07-25T02:42:21.322Z,72.39
2022-07-25T02:42:56.733Z,73.50
2022-07-25T02:43:31.771Z,72.69
2022-07-25T02:44:07.147Z,72.89
2022-07-25T02:44:41.856Z,72.19
2022-07-25T02:45:16.979Z,72.69
2022-07-25T02:45:52.078Z,73.10
2022-07-25T02:46:27.503Z,72.19
2022-07-25T02:47:02.369Z,72.00
2022-07-25T02:47:37.576Z,72.39
2022-07-25T02:48:13.097Z,71.80
2022-07-25T02:48:48.762Z,73.70
2022-07-25T02:49:23.905Z,72.50
2022-07-25T02:50:06.299Z,73.00
2022-07-25T02:50:41.797Z,73.50
2022-07-25T02:51:16.900Z,72.39
2022-07-25T02:51:52.406Z,73.10
2022-07-25T02:52:27.713Z,72.69
2022-07-25T02:53:02.938Z,73.60
2022-07-25T02:53:56.569Z,74.00
2022-07-25T02:54:13.274Z,72.50
2022-07-25T02:54:48.150Z,72.69
2022-07-25T02:55:23.349Z,72.80
2022-07-25T02:55:58.835Z,72.39
2022-07-25T02:56:34.150Z,73.19
2022-07-25T02:57:09.466Z,72.03
2022-07-25T02:57:44.464Z,73.03
2022-07-25T02:58:19.584Z,72.39
2022-07-25T02:58:54.885Z,73.70
2022-07-25T02:59:32.091Z,72.63
2022-07-25T03:00:05.026Z,73.33
2022-07-25T03:00:40.740Z,74.13
2022-07-25T03:01:16.211Z,73.13
2022-07-25T03:01:51.231Z,72.89
2022-07-25T03:02:26.261Z,73.80
2022-07-25T03:03:01.578Z,74.50
2022-07-25T03:03:37.455Z,74.03
2022-07-25T03:04:12.688Z,72.50
2022-07-25T03:04:47.710Z,72.80
2022-07-25T03:05:23.018Z,72.63
2022-07-25T03:05:58.314Z,73.03
2022-07-25T03:06:33.924Z,73.03
2022-07-25T03:07:08.937Z,72.23
2022-07-25T03:07:44.526Z,71.93
2022-07-25T03:08:20.050Z,73.13
2022-07-25T03:08:55.139Z,73.13
2022-07-25T03:09:30.239Z,72.89
2022-07-25T03:10:08.767Z,73.03
2022-07-25T03:10:41.034Z,73.10
2022-07-25T03:11:16.342Z,72.73
2022-07-25T03:11:51.535Z,72.83
2022-07-25T03:12:26.749Z,72.83
2022-07-25T03:13:02.042Z,72.83
2022-07-25T03:13:37.366Z,72.13
2022-07-25T03:14:12.377Z,72.83
2022-07-25T03:14:47.579Z,72.33
2022-07-25T03:15:22.907Z,72.53
2022-07-25T03:15:58.196Z,72.43
2022-07-25T03:16:33.422Z,72.33
2022-07-25T03:17:08.674Z,74.00
2022-07-25T03:17:43.898Z,73.93
2022-07-25T03:18:18.989Z,72.63
2022-07-25T03:18:54.383Z,73.03
2022-07-25T03:19:29.968Z,73.63
2022-07-25T03:20:05.591Z,72.73
2022-07-25T03:20:40.781Z,72.53
2022-07-25T03:21:16.003Z,73.73
2022-07-25T03:21:51.313Z,72.63
2022-07-25T03:22:26.522Z,73.03
2022-07-25T03:23:01.749Z,72.73
2022-07-25T03:23:36.866Z,71.93
2022-07-25T03:24:12.312Z,71.93
2022-07-25T03:24:47.810Z,71.73
2022-07-25T03:25:23.207Z,72.93
2022-07-25T03:25:58.502Z,72.93
2022-07-25T03:26:33.834Z,72.23
2022-07-25T03:27:09.143Z,72.43
2022-07-25T03:27:44.545Z,73.03
2022-07-25T03:28:19.668Z,72.23
2022-07-25T03:28:54.949Z,72.23
2022-07-25T03:29:30.151Z,71.73
2022-07-25T03:30:05.452Z,72.33
2022-07-25T03:30:40.550Z,72.83
2022-07-25T03:31:15.707Z,73.13
2022-07-25T03:31:50.939Z,71.93
2022-07-25T03:32:26.071Z,71.77
2022-07-25T03:33:01.274Z,72.23
2022-07-25T03:33:36.362Z,73.13
2022-07-25T03:34:11.560Z,71.73
2022-07-25T03:34:46.547Z,73.07
2022-07-25T03:35:21.772Z,72.23
2022-07-25T03:35:56.959Z,72.33
2022-07-25T03:36:32.476Z,72.73
2022-07-25T03:37:07.288Z,72.97
2022-07-25T03:37:42.398Z,72.27
2022-07-25T03:38:17.590Z,72.36
2022-07-25T03:38:52.990Z,72.73
2022-07-25T03:39:28.182Z,72.56
2022-07-25T03:40:03.581Z,72.47
2022-07-25T03:40:38.914Z,72.36
2022-07-25T03:41:14.214Z,73.16
2022-07-25T03:41:49.555Z,73.53
2022-07-25T03:42:26.724Z,74.23
2022-07-25T03:43:00.447Z,73.16
2022-07-25T03:43:35.737Z,72.47
2022-07-25T03:44:10.991Z,73.53
2022-07-25T03:44:46.182Z,72.77
2022-07-25T03:45:21.388Z,72.73
2022-07-25T03:45:56.511Z,72.77
2022-07-25T03:46:31.904Z,72.27
2022-07-25T03:47:06.908Z,72.77
2022-07-25T03:47:42.006Z,73.36
2022-07-25T03:48:17.407Z,73.47
2022-07-25T03:48:53.022Z,72.16
2022-07-25T03:49:28.391Z,72.77
2022-07-25T03:50:03.588Z,73.77
2022-07-25T03:50:38.894Z,72.56
2022-07-25T03:51:14.289Z,71.86
2022-07-25T03:51:49.609Z,72.06
2022-07-25T03:52:24.731Z,72.27
2022-07-25T03:53:00.232Z,72.36
2022-07-25T03:53:35.749Z,72.47
2022-07-25T03:54:11.331Z,72.36
2022-07-25T03:54:46.671Z,72.56
2022-07-25T03:55:21.788Z,72.27
2022-07-25T03:55:57.105Z,73.47
2022-07-25T03:56:32.617Z,71.96
2022-07-25T03:57:07.934Z,71.96
2022-07-25T03:57:43.150Z,72.47
2022-07-25T03:58:18.870Z,72.36
2022-07-25T03:58:54.182Z,72.27
2022-07-25T03:59:29.481Z,73.16
2022-07-25T04:00:04.680Z,72.47
2022-07-25T04:00:40.042Z,72.27
2022-07-25T04:01:15.323Z,72.27
2022-07-25T04:01:50.884Z,73.16
2022-07-25T04:02:25.961Z,72.06
2022-07-25T04:03:01.135Z,72.27
2022-07-25T04:03:36.750Z,72.56
2022-07-25T04:04:11.771Z,73.47
2022-07-25T04:04:47.480Z,72.50
2022-07-25T04:05:22.691Z,72.66
2022-07-25T04:05:58.008Z,72.27
2022-07-25T04:06:33.411Z,73.07
2022-07-25T04:07:08.620Z,72.16
2022-07-25T04:07:44.023Z,72.66
2022-07-25T04:08:19.429Z,72.36
2022-07-25T04:08:54.529Z,72.36
2022-07-25T04:09:33.310Z,72.09
2022-07-25T04:10:05.023Z,72.30
2022-07-25T04:10:40.239Z,72.30
2022-07-25T04:11:15.250Z,71.96
2022-07-25T04:11:50.454Z,72.77
2022-07-25T04:12:25.676Z,72.50
2022-07-25T04:13:00.580Z,73.30
2022-07-25T04:13:35.674Z,72.40
2022-07-25T04:14:10.920Z,73.57
2022-07-25T04:14:46.184Z,72.70
2022-07-25T04:15:21.544Z,71.77
2022-07-25T04:15:56.772Z,72.06
2022-07-25T04:16:32.013Z,72.16
2022-07-25T04:17:07.325Z,71.56
2022-07-25T04:17:42.787Z,72.16
2022-07-25T04:18:20.887Z,72.27
2022-07-25T04:18:53.643Z,72.06
2022-07-25T04:19:28.992Z,73.07
2022-07-25T04:20:05.581Z,71.96
2022-07-25T04:20:39.163Z,71.86
2022-07-25T04:21:14.459Z,71.77
2022-07-25T04:21:49.780Z,71.86
2022-07-25T04:22:24.922Z,71.16
2022-07-25T04:23:00.133Z,71.26
2022-07-25T04:23:35.349Z,73.36
2022-07-25T04:24:10.867Z,71.86
2022-07-25T04:24:45.983Z,71.16
2022-07-25T04:25:21.584Z,71.63
2022-07-25T04:25:57.120Z,70.66
2022-07-25T04:26:32.515Z,72.27
2022-07-25T04:27:07.839Z,71.83
2022-07-25T04:27:43.144Z,70.96
2022-07-25T04:28:18.575Z,72.27
2022-07-25T04:28:53.795Z,74.07
2022-07-25T04:29:28.898Z,71.83
2022-07-25T04:30:04.098Z,71.96
2022-07-25T04:30:39.391Z,70.93
2022-07-25T04:31:14.333Z,71.77
2022-07-25T04:31:49.249Z,70.56
2022-07-25T04:32:24.375Z,70.96
2022-07-25T04:32:59.613Z,70.93
2022-07-25T04:33:35.325Z,70.53
2022-07-25T04:34:10.626Z,71.56
2022-07-25T04:34:45.753Z,71.16
2022-07-25T04:35:21.151Z,70.53
2022-07-25T04:35:56.481Z,70.53
2022-07-25T04:36:32.192Z,70.93
2022-07-25T04:37:07.601Z,70.73
2022-07-25T04:37:42.811Z,70.93
2022-07-25T04:38:17.950Z,70.62
2022-07-25T04:38:53.243Z,70.83
2022-07-25T04:39:28.657Z,70.12
2022-07-25T04:40:03.965Z,69.82
2022-07-25T04:40:39.373Z,70.12
2022-07-25T04:41:14.464Z,70.93
2022-07-25T04:41:49.677Z,70.83
2022-07-25T04:42:24.919Z,71.53
2022-07-25T04:43:00.299Z,70.93
2022-07-25T04:43:35.601Z,70.73
2022-07-25T04:44:10.742Z,69.93
2022-07-25T04:44:45.950Z,70.73
2022-07-25T04:45:21.097Z,70.62
2022-07-25T04:45:56.471Z,70.12
2022-07-25T04:46:31.664Z,71.43
2022-07-25T04:47:06.873Z,70.83
2022-07-25T04:47:41.991Z,71.03
2022-07-25T04:48:17.290Z,71.63
2022-07-25T04:48:52.541Z,72.03
2022-07-25T04:49:27.808Z,72.43
2022-07-25T04:50:02.998Z,70.53
2022-07-25T04:50:38.236Z,70.73
2022-07-25T04:51:13.420Z,71.33
2022-07-25T04:51:48.635Z,70.53
2022-07-25T04:52:23.552Z,70.32
2022-07-25T04:52:58.836Z,70.23
2022-07-25T04:53:34.143Z,70.32
2022-07-25T04:54:09.935Z,70.03
2022-07-25T04:54:44.946Z,69.93
2022-07-25T04:55:20.341Z,69.69
2022-07-25T04:55:55.431Z,71.00
2022-07-25T04:56:30.919Z,71.80
2022-07-25T04:57:06.749Z,70.79
2022-07-25T04:57:42.132Z,70.09
2022-07-25T04:58:17.439Z,69.49
2022-07-25T04:58:52.557Z,70.39
2022-07-25T04:59:27.942Z,69.59
2022-07-25T05:00:03.167Z,70.19
2022-07-25T05:00:38.464Z,69.49
2022-07-25T05:01:13.337Z,70.50
2022-07-25T05:01:48.652Z,70.09
2022-07-25T05:02:24.010Z,69.79
2022-07-25T05:02:59.038Z,69.59
2022-07-25T05:03:34.249Z,68.59
2022-07-25T05:04:09.627Z,69.69
2022-07-25T05:04:45.543Z,69.29
2022-07-25T05:05:21.538Z,69.49
2022-07-25T05:05:55.482Z,70.89
2022-07-25T05:06:30.777Z,69.99
2022-07-25T05:07:06.101Z,69.56
2022-07-25T05:07:41.432Z,69.09
2022-07-25T05:08:16.746Z,69.89
2022-07-25T05:08:52.046Z,69.39
2022-07-25T05:09:27.134Z,69.39
2022-07-25T05:10:02.557Z,68.86
2022-07-25T05:10:37.674Z,69.46
2022-07-25T05:11:13.175Z,69.06
2022-07-25T05:11:51.612Z,69.96
2022-07-25T05:12:23.262Z,69.86
2022-07-25T05:12:58.366Z,69.56
2022-07-25T05:13:33.569Z,70.16
2022-07-25T05:14:09.134Z,69.56
2022-07-25T05:14:44.251Z,69.16
2022-07-25T05:15:19.240Z,69.36
2022-07-25T05:15:54.291Z,69.46
2022-07-25T05:16:29.302Z,69.86
2022-07-25T05:17:04.681Z,71.06
2022-07-25T05:17:39.801Z,71.66
2022-07-25T05:18:15.006Z,69.46
2022-07-25T05:18:50.224Z,69.76
2022-07-25T05:19:25.203Z,70.86
2022-07-25T05:20:00.398Z,69.86
2022-07-25T05:20:35.703Z,69.66
2022-07-25T05:21:11.037Z,69.66
2022-07-25T05:21:46.350Z,68.36
2022-07-25T05:22:25.129Z,70.16
2022-07-25T05:22:56.666Z,69.76
2022-07-25T05:23:32.067Z,70.06
2022-07-25T05:24:07.401Z,68.86
2022-07-25T05:24:42.491Z,69.36
2022-07-25T05:25:17.899Z,69.36
2022-07-25T05:25:53.322Z,69.96
2022-07-25T05:26:28.626Z,68.76
2022-07-25T05:27:03.629Z,69.56
2022-07-25T05:27:38.925Z,69.36
2022-07-25T05:28:14.124Z,69.36
2022-07-25T05:28:49.234Z,68.66
2022-07-25T05:29:24.322Z,69.46
2022-07-25T05:29:59.337Z,69.46
2022-07-25T05:30:39.311Z,70.26
2022-07-25T05:31:10.336Z,69.66
2022-07-25T05:31:45.529Z,69.46
2022-07-25T05:32:20.843Z,69.26
2022-07-25T05:32:55.961Z,68.55
2022-07-25T05:33:30.849Z,70.36
2022-07-25T05:34:06.131Z,68.55
2022-07-25T05:34:41.071Z,69.36
2022-07-25T05:35:16.351Z,68.26
2022-07-25T05:35:51.565Z,69.53
2022-07-25T05:36:26.586Z,70.16
2022-07-25T05:37:01.615Z,70.62
2022-07-25T05:37:36.908Z,69.73
2022-07-25T05:38:12.201Z,70.73
2022-07-25T05:38:47.412Z,69.06
2022-07-25T05:39:22.407Z,68.52
2022-07-25T05:39:57.816Z,69.32
2022-07-25T05:40:32.825Z,70.23
2022-07-25T05:41:08.142Z,69.23
2022-07-25T05:41:43.348Z,68.93
2022-07-25T05:42:18.692Z,68.93
2022-07-25T05:42:55.449Z,69.43
2022-07-25T05:43:29.381Z,69.73
2022-07-25T05:44:05.178Z,70.73
2022-07-25T05:44:40.595Z,69.32
2022-07-25T05:45:16.194Z,69.32
2022-07-25T05:45:51.618Z,69.73
2022-07-25T05:46:27.051Z,69.32
2022-07-25T05:47:02.684Z,68.13
2022-07-25T05:47:38.035Z,68.09
2022-07-25T05:48:13.449Z,68.93
2022-07-25T05:48:48.711Z,68.19
2022-07-25T05:49:23.763Z,67.99
2022-07-25T05:49:58.769Z,68.79
2022-07-25T05:50:33.962Z,67.79
2022-07-25T05:51:09.086Z,67.99
2022-07-25T05:51:44.294Z,68.69
2022-07-25T05:52:19.896Z,67.99
2022-07-25T05:52:55.196Z,67.79
2022-07-25T05:53:30.390Z,67.66
2022-07-25T05:54:05.820Z,66.96
2022-07-25T05:54:40.716Z,68.16
2022-07-25T05:55:16.016Z,66.86
2022-07-25T05:55:51.120Z,66.46
2022-07-25T05:56:26.219Z,66.36
2022-07-25T05:57:01.535Z,67.16
2022-07-25T05:57:36.728Z,67.03
2022-07-25T05:58:12.013Z,66.93
2022-07-25T05:58:47.317Z,66.23
2022-07-25T05:59:22.934Z,66.83
2022-07-25T05:59:58.144Z,66.93
2022-07-25T06:00:33.228Z,66.93
2022-07-25T06:01:08.443Z,67.72
2022-07-25T06:01:43.607Z,66.73
2022-07-25T06:02:18.698Z,67.03
2022-07-25T06:02:53.819Z,66.09
2022-07-25T06:03:28.970Z,66.80
2022-07-25T06:04:04.316Z,67.19
2022-07-25T06:04:39.017Z,68.49
2022-07-25T06:05:14.223Z,66.39
2022-07-25T06:05:49.224Z,66.89
2022-07-25T06:06:24.536Z,65.70
2022-07-25T06:06:59.837Z,66.09
2022-07-25T06:07:35.249Z,65.77
2022-07-25T06:08:10.559Z,65.67
2022-07-25T06:08:45.560Z,66.17
2022-07-25T06:09:20.876Z,65.26
2022-07-25T06:09:55.973Z,65.37
2022-07-25T06:10:31.069Z,65.23
2022-07-25T06:11:06.263Z,66.03
2022-07-25T06:11:54.463Z,65.94
2022-07-25T06:12:17.376Z,64.74
2022-07-25T06:12:52.663Z,64.64
2022-07-25T06:13:28.132Z,65.11
2022-07-25T06:14:03.264Z,64.71
2022-07-25T06:14:38.466Z,64.94
2022-07-25T06:15:22.165Z,64.31
2022-07-25T06:15:49.679Z,65.70
2022-07-25T06:16:24.904Z,64.51
2022-07-25T06:17:00.116Z,64.07
2022-07-25T06:17:35.434Z,63.08
2022-07-25T06:18:10.741Z,63.21
2022-07-25T06:18:45.834Z,65.37
2022-07-25T06:19:20.719Z,64.97
2022-07-25T06:19:55.919Z,67.07
2022-07-25T06:20:31.128Z,64.28
2022-07-25T06:21:06.528Z,64.07
2022-07-25T06:21:41.724Z,63.25
2022-07-25T06:22:16.836Z,63.25
2022-07-25T06:22:52.242Z,62.65
2022-07-25T06:23:27.986Z,63.05
2022-07-25T06:24:03.298Z,63.45
2022-07-25T06:24:38.692Z,62.85
2022-07-25T06:25:14.347Z,62.62
2022-07-25T06:25:50.362Z,63.52
2022-07-25T06:26:24.758Z,63.19
2022-07-25T06:26:59.795Z,64.12
2022-07-25T06:27:34.913Z,64.58
2022-07-25T06:28:10.691Z,63.42
2022-07-25T06:28:45.724Z,62.82
2022-07-25T06:29:21.336Z,63.98
2022-07-25T06:29:56.549Z,63.39
2022-07-25T06:30:31.748Z,63.19
2022-07-25T06:31:07.068Z,62.49
2022-07-25T06:31:42.215Z,62.49
2022-07-25T06:32:17.365Z,62.89
2022-07-25T06:32:52.568Z,62.29
2022-07-25T06:33:27.567Z,61.90
2022-07-25T06:34:03.463Z,61.47
2022-07-25T06:34:38.471Z,63.89
2022-07-25T06:35:13.691Z,64.65
2022-07-25T06:35:48.702Z,62.76
2022-07-25T06:36:24.099Z,63.26
2022-07-25T06:36:59.304Z,64.06
2022-07-25T06:37:34.937Z,63.36
2022-07-25T06:38:10.664Z,62.16
2022-07-25T06:38:45.848Z,63.26
2022-07-25T06:39:21.064Z,61.94
2022-07-25T06:39:56.656Z,61.96
2022-07-25T06:40:31.970Z,62.73
2022-07-25T06:41:07.182Z,61.01
2022-07-25T06:41:42.578Z,61.14
2022-07-25T06:42:17.697Z,60.52
2022-07-25T06:42:52.788Z,60.61
2022-07-25T06:43:28.128Z,60.22
2022-07-25T06:44:03.733Z,60.28
2022-07-25T06:44:38.826Z,61.88
2022-07-25T06:45:14.228Z,61.08
2022-07-25T06:45:49.521Z,59.86
2022-07-25T06:46:24.737Z,62.45
2022-07-25T06:47:00.285Z,59.36
2022-07-25T06:47:36.131Z,58.37
2022-07-25T06:48:10.750Z,57.95
2022-07-25T06:48:46.204Z,58.25
2022-07-25T06:49:21.754Z,57.85
2022-07-25T06:49:56.968Z,60.60
2022-07-25T06:50:32.267Z,59.04
2022-07-25T06:51:07.678Z,57.72
2022-07-25T06:51:42.772Z,56.34
2022-07-25T06:52:18.205Z,56.43
2022-07-25T06:52:53.196Z,57.10
2022-07-25T06:53:28.526Z,57.20
2022-07-25T06:54:04.055Z,56.40
2022-07-25T06:54:38.968Z,58.29
2022-07-25T06:55:14.183Z,56.51
2022-07-25T06:55:49.665Z,58.39
2022-07-25T06:56:24.771Z,56.48
2022-07-25T06:57:00.088Z,55.58
2022-07-25T06:57:35.801Z,57.57
2022-07-25T06:58:11.148Z,55.98
2022-07-25T06:58:46.541Z,56.35
2022-07-25T06:59:21.740Z,54.57
2022-07-25T06:59:56.960Z,56.35
2022-07-25T07:00:32.409Z,55.36
2022-07-25T07:01:07.525Z,53.55
2022-07-25T07:01:42.710Z,55.93
2022-07-25T07:02:18.237Z,54.44
2022-07-25T07:02:53.772Z,53.75
2022-07-25T07:03:28.748Z,53.72
2022-07-25T07:04:04.436Z,55.11
2022-07-25T07:04:39.459Z,53.63
2022-07-25T07:05:14.772Z,55.80
2022-07-25T07:05:49.778Z,54.91
2022-07-25T07:06:25.099Z,54.02
2022-07-25T07:07:00.273Z,56.59
2022-07-25T07:07:35.590Z,55.11
2022-07-25T07:08:10.887Z,53.70
2022-07-25T07:08:45.897Z,55.77
2022-07-25T07:09:21.177Z,53.30
2022-07-25T07:09:56.476Z,53.30
2022-07-25T07:10:31.720Z,53.30
2022-07-25T07:11:07.229Z,53.20
2022-07-25T07:11:42.438Z,55.18
2022-07-25T07:12:17.944Z,54.10
2022-07-25T07:12:52.839Z,53.89
2022-07-25T07:13:28.040Z,53.80
2022-07-25T07:14:03.933Z,55.58
2022-07-25T07:14:38.660Z,56.07
2022-07-25T07:15:13.968Z,53.89
2022-07-25T07:15:49.147Z,55.08
2022-07-25T07:16:24.292Z,56.10
2022-07-25T07:16:59.567Z,54.61
2022-07-25T07:17:34.926Z,53.03
2022-07-25T07:18:10.147Z,53.72
2022-07-25T07:18:49.101Z,54.42
2022-07-25T07:19:20.754Z,57.78
2022-07-25T07:19:55.957Z,54.42
2022-07-25T07:20:31.161Z,53.65
2022-07-25T07:21:06.289Z,54.05
2022-07-25T07:21:41.777Z,55.63
2022-07-25T07:22:16.914Z,53.25
2022-07-25T07:22:52.035Z,55.63
2022-07-25T07:23:27.033Z,53.85
2022-07-25T07:24:02.356Z,54.84
2022-07-25T07:24:42.843Z,55.83
2022-07-25T07:25:12.959Z,55.43
2022-07-25T07:25:48.309Z,54.84
2022-07-25T07:26:23.640Z,54.14
2022-07-25T07:26:58.852Z,54.05
2022-07-25T07:27:34.152Z,53.95
2022-07-25T07:28:09.169Z,54.35
2022-07-25T07:28:44.275Z,58.01
2022-07-25T07:29:19.490Z,55.04
2022-07-25T07:29:54.616Z,56.02
2022-07-25T07:30:58.334Z,56.32
2022-07-25T07:31:20.015Z,56.42
2022-07-25T07:31:40.286Z,59.00
2022-07-25T07:32:15.491Z,56.79
2022-07-25T07:32:50.767Z,55.63
2022-07-25T07:33:25.973Z,56.13
2022-07-25T07:34:01.414Z,56.49